Time;durP1;ratioP1;P1;durP2;ratioP2;P2;SDS_P1;SDS_P2;PMS_P1;PMS_P2;Temp;Humidity;BMP_temperature;BMP_pressure;BME280_temperature;BME280_humidity;BME280_pressure;Samples;Min_cycle;Max_cycle;Signal;HPM_P1;HPM_P2
2024/01/08 00:01:47;;;;;;;5.47;3.38;;;-1.50;1.00;;;;;;7359038;19;20468;-70
2024/01/08 00:04:18;;;;;;;5.50;3.05;;;-1.50;1.00;;;;;;7370206;19;20022;-70
2024/01/08 00:06:52;;;;;;;3.75;2.58;;;-1.50;1.00;;;;;;7377795;19;20587;-69
2024/01/08 00:09:22;;;;;;;2.75;2.22;;;-1.50;1.00;;;;;;7377362;19;20464;-69
2024/01/08 00:11:52;;;;;;;5.18;2.40;;;-1.40;1.00;;;;;;7378046;19;20015;-69
2024/01/08 00:14:22;;;;;;;4.57;3.13;;;-1.50;1.00;;;;;;7377913;19;20020;-69
2024/01/08 00:16:52;;;;;;;5.43;3.28;;;-1.50;1.00;;;;;;7379082;19;20035;-69
2024/01/08 00:19:22;;;;;;;4.07;2.95;;;-1.40;1.00;;;;;;7376782;19;20006;-69
2024/01/08 00:21:55;;;;;;;4.82;3.05;;;-1.40;1.00;;;;;;7378897;19;20035;-70
2024/01/08 00:24:25;;;;;;;5.00;2.97;;;-1.40;1.00;;;;;;7378655;19;20007;-69
2024/01/08 00:26:55;;;;;;;5.70;3.05;;;-1.40;1.00;;;;;;7379483;19;20085;-70
2024/01/08 00:29:25;;;;;;;3.72;3.00;;;-1.50;1.00;;;;;;7378778;19;20010;-70
2024/01/08 00:31:55;;;;;;;4.70;2.95;;;-1.50;1.00;;;;;;7377898;19;20026;-70
2024/01/08 00:34:27;;;;;;;4.35;3.00;;;-1.40;1.00;;;;;;7378858;19;20002;-70
2024/01/08 00:37:00;;;;;;;3.67;2.80;;;-1.40;1.00;;;;;;7379441;19;20018;-69
2024/01/08 00:39:30;;;;;;;4.05;2.50;;;-1.40;1.00;;;;;;7370708;19;20010;-69
2024/01/08 00:42:00;;;;;;;4.90;3.15;;;-1.40;1.00;;;;;;7375069;19;20021;-70
2024/01/08 00:44:30;;;;;;;4.35;2.65;;;-1.40;1.00;;;;;;7374917;19;20006;-70
2024/01/08 00:47:00;;;;;;;4.43;3.15;;;-1.40;1.00;;;;;;7375337;19;20006;-69
2024/01/08 00:49:30;;;;;;;4.93;3.33;;;-1.40;1.00;;;;;;7375236;19;20006;-69
2024/01/08 00:52:03;;;;;;;4.88;3.15;;;-1.40;1.00;;;;;;7376608;19;20336;-70
2024/01/08 00:54:33;;;;;;;4.45;2.80;;;-1.40;1.00;;;;;;7382217;19;20025;-69
2024/01/08 00:57:03;;;;;;;4.45;3.22;;;-1.40;1.00;;;;;;7382658;19;20014;-70
2024/01/08 00:59:33;;;;;;;4.32;2.88;;;-1.40;1.00;;;;;;7382678;19;20039;-70
2024/01/08 01:02:03;;;;;;;5.00;3.10;;;-1.40;1.00;;;;;;7383775;19;20015;-70
2024/01/08 01:04:36;;;;;;;5.47;3.28;;;-1.40;1.00;;;;;;7387293;19;20017;-69
2024/01/08 01:07:14;;;;;;;5.50;3.22;;;-1.40;1.00;;;;;;7398875;19;20751;-69
2024/01/08 01:09:46;;;;;;;5.40;3.25;;;-1.40;1.00;;;;;;7386706;19;20020;-70
2024/01/08 01:12:18;;;;;;;5.00;3.10;;;-1.40;1.00;;;;;;7382685;19;20014;-70
2024/01/08 01:14:52;;;;;;;4.50;3.28;;;-1.40;1.00;;;;;;7380901;19;20014;-69
2024/01/08 01:17:23;;;;;;;6.00;3.15;;;-1.30;1.00;;;;;;7381685;19;20014;-70
2024/01/08 01:19:55;;;;;;;4.30;3.08;;;-1.30;1.00;;;;;;7380468;19;20120;-70
2024/01/08 01:22:35;;;;;;;5.50;3.10;;;-1.30;1.00;;;;;;7380828;19;20132;-69
2024/01/08 01:25:18;;;;;;;4.90;3.05;;;-1.30;1.00;;;;;;7382139;19;20077;-69
2024/01/08 01:27:50;;;;;;;6.22;3.95;;;-1.40;1.00;;;;;;7383555;19;20093;-69
2024/01/08 01:30:22;;;;;;;5.80;3.65;;;-1.40;1.00;;;;;;7383152;19;20018;-70
2024/01/08 01:32:52;;;;;;;5.35;3.83;;;-1.40;1.00;;;;;;7382341;19;20014;-70
2024/01/08 01:35:22;;;;;;;5.18;3.22;;;-1.30;1.00;;;;;;7380055;19;20605;-70
2024/01/08 01:37:58;;;;;;;5.53;3.35;;;-1.30;1.00;;;;;;7384150;19;20483;-70
2024/01/08 01:40:28;;;;;;;5.28;3.50;;;-1.30;1.00;;;;;;7383054;19;20021;-70
2024/01/08 01:42:58;;;;;;;6.50;4.10;;;-1.30;1.00;;;;;;7380126;19;20038;-70
2024/01/08 01:45:29;;;;;;;4.70;3.33;;;-1.30;1.00;;;;;;7383307;19;20007;-70
2024/01/08 01:47:59;;;;;;;6.68;3.80;;;-1.30;1.00;;;;;;7378738;19;20441;-69
2024/01/08 01:50:29;;;;;;;5.07;3.63;;;-1.30;1.00;;;;;;7379453;19;20019;-69
2024/01/08 01:53:02;;;;;;;5.13;3.63;;;-1.30;1.00;;;;;;7381008;19;20011;-69
2024/01/08 01:55:32;;;;;;;5.78;3.80;;;-1.20;1.00;;;;;;7382136;19;20006;-70
2024/01/08 01:58:02;;;;;;;6.38;3.92;;;-1.30;1.00;;;;;;7381051;19;20003;-70
2024/01/08 02:00:32;;;;;;;4.93;3.53;;;-1.20;1.00;;;;;;7381637;19;20100;-70
2024/01/08 02:03:04;;;;;;;5.90;3.67;;;-1.20;1.00;;;;;;7380575;19;20007;-69
2024/01/08 02:05:34;;;;;;;7.68;3.58;;;-1.20;1.00;;;;;;7372655;19;20006;-69
2024/01/08 02:08:08;;;;;;;6.22;4.10;;;-1.20;1.00;;;;;;7381514;19;20076;-70
2024/01/08 02:10:42;;;;;;;5.60;3.83;;;-1.20;1.00;;;;;;7381323;19;20017;-70
2024/01/08 02:13:12;;;;;;;5.50;3.80;;;-1.10;1.00;;;;;;7381283;19;20466;-70
2024/01/08 02:15:42;;;;;;;5.78;3.75;;;-1.20;1.00;;;;;;7381437;19;20013;-70
2024/01/08 02:18:12;;;;;;;5.78;4.25;;;-1.20;1.00;;;;;;7379424;19;20006;-70
2024/01/08 02:20:42;;;;;;;6.50;4.15;;;-1.20;1.00;;;;;;7381255;19;20074;-69
2024/01/08 02:23:15;;;;;;;6.93;4.53;;;-1.20;1.00;;;;;;7380520;19;20014;-70
2024/01/08 02:25:46;;;;;;;5.72;3.92;;;-1.20;1.00;;;;;;7381773;19;20354;-69
2024/01/08 02:28:16;;;;;;;4.68;3.53;;;-1.20;1.00;;;;;;7381401;19;20010;-70
2024/01/08 02:30:46;;;;;;;5.82;4.15;;;-1.20;1.00;;;;;;7380013;19;20015;-69
2024/01/08 02:33:16;;;;;;;6.72;4.60;;;-1.20;1.00;;;;;;7381109;19;20018;-70
2024/01/08 02:35:46;;;;;;;5.05;3.55;;;-1.20;1.00;;;;;;7380735;19;20529;-70
2024/01/08 02:38:19;;;;;;;5.97;3.80;;;-1.20;1.00;;;;;;7379795;19;20014;-71
2024/01/08 02:40:49;;;;;;;5.65;3.72;;;-1.20;1.00;;;;;;7380580;19;20014;-69
2024/01/08 02:43:19;;;;;;;6.00;3.88;;;-1.20;1.00;;;;;;7381034;19;20021;-69
2024/01/08 02:45:49;;;;;;;5.88;4.03;;;-1.10;1.00;;;;;;7378967;19;20470;-70
2024/01/08 02:48:19;;;;;;;5.35;3.45;;;-1.10;1.00;;;;;;7381023;19;20021;-70
2024/01/08 02:50:49;;;;;;;5.80;3.60;;;-1.20;1.00;;;;;;7380356;19;20011;-70
2024/01/08 02:53:22;;;;;;;4.63;3.55;;;-1.20;1.00;;;;;;7378870;19;20093;-70
2024/01/08 02:55:52;;;;;;;4.95;3.72;;;-1.20;1.00;;;;;;7379574;19;20026;-69
2024/01/08 02:58:22;;;;;;;6.03;4.18;;;-1.20;1.00;;;;;;7378542;19;20018;-70
2024/01/08 03:00:52;;;;;;;6.10;4.03;;;-1.20;1.00;;;;;;7378916;19;20015;-69
2024/01/08 03:03:22;;;;;;;5.18;3.83;;;-1.20;1.00;;;;;;7379245;19;20014;-70
2024/01/08 03:05:54;;;;;;;6.60;4.25;;;-1.10;1.00;;;;;;7379351;19;20498;-70
2024/01/08 03:08:26;;;;;;;5.18;3.72;;;-1.20;1.00;;;;;;7380069;19;20019;-70
2024/01/08 03:10:56;;;;;;;7.22;3.67;;;-1.20;1.00;;;;;;7377938;19;20691;-69
2024/01/08 03:13:27;;;;;;;4.65;3.28;;;-1.20;1.00;;;;;;7376131;19;20011;-69
2024/01/08 03:15:57;;;;;;;5.95;3.72;;;-1.20;1.00;;;;;;7377209;19;20073;-69
2024/01/08 03:18:27;;;;;;;5.30;3.50;;;-1.20;1.00;;;;;;7380284;19;20027;-70
2024/01/08 03:20:57;;;;;;;5.75;3.97;;;-1.20;1.00;;;;;;7380469;19;20024;-69
2024/01/08 03:23:30;;;;;;;5.65;3.72;;;-1.20;1.00;;;;;;7379677;19;20074;-69
2024/01/08 03:26:00;;;;;;;5.90;4.00;;;-1.20;1.00;;;;;;7380512;19;20014;-70
2024/01/08 03:28:30;;;;;;;6.75;3.90;;;-1.20;1.00;;;;;;7379455;19;20014;-70
2024/01/08 03:31:00;;;;;;;5.25;3.75;;;-1.20;1.00;;;;;;7374118;19;20010;-71
2024/01/08 03:33:31;;;;;;;6.55;4.28;;;-1.20;1.00;;;;;;7379960;19;20015;-73
2024/01/08 03:36:01;;;;;;;6.15;3.85;;;-1.20;1.00;;;;;;7394326;19;20007;-70
2024/01/08 03:38:34;;;;;;;6.85;4.13;;;-1.10;1.00;;;;;;7390087;19;20024;-71
2024/01/08 03:41:04;;;;;;;5.55;4.20;;;-1.20;1.00;;;;;;7379013;19;20010;-70
2024/01/08 03:43:34;;;;;;;6.53;4.53;;;-1.20;1.00;;;;;;7379366;19;20011;-71
2024/01/08 03:46:04;;;;;;;7.28;4.75;;;-1.10;1.00;;;;;;7378348;19;20026;-70
2024/01/08 03:48:34;;;;;;;6.55;4.38;;;-1.20;1.00;;;;;;7378176;19;20078;-70
2024/01/08 03:51:04;;;;;;;5.75;4.15;;;-1.20;1.00;;;;;;7378264;19;20021;-70
2024/01/08 03:53:37;;;;;;;5.80;4.40;;;-1.20;1.00;;;;;;7374349;19;20010;-68
2024/01/08 03:56:08;;;;;;;6.05;4.13;;;-1.20;1.00;;;;;;7376207;19;20487;-68
2024/01/08 03:58:39;;;;;;;7.03;4.78;;;-1.20;1.00;;;;;;7376991;19;20349;-69
2024/01/08 04:01:09;;;;;;;6.32;4.53;;;-1.20;1.00;;;;;;7378577;19;20010;-68
2024/01/08 04:03:39;;;;;;;5.85;4.15;;;-1.20;1.00;;;;;;7377417;19;20035;-68
2024/01/08 04:06:09;;;;;;;6.47;4.65;;;-1.20;1.00;;;;;;7377890;19;20459;-68
2024/01/08 04:08:42;;;;;;;6.82;4.10;;;-1.20;1.00;;;;;;7377161;19;20014;-69
2024/01/08 04:11:12;;;;;;;6.25;4.13;;;-1.20;1.00;;;;;;7377264;19;20011;-69
2024/01/08 04:13:44;;;;;;;7.05;4.45;;;-1.20;1.00;;;;;;7377343;19;20010;-69
2024/01/08 04:16:14;;;;;;;5.93;4.43;;;-1.20;1.00;;;;;;7377095;19;20086;-70
2024/01/08 04:18:44;;;;;;;7.50;4.45;;;-1.20;1.00;;;;;;7375704;19;20482;-69
2024/01/08 04:21:17;;;;;;;6.35;4.25;;;-1.20;1.00;;;;;;7377540;19;20042;-69
2024/01/08 04:23:50;;;;;;;4.78;3.42;;;-1.30;1.00;;;;;;7377050;19;20013;-68
2024/01/08 04:26:23;;;;;;;5.85;3.63;;;-1.30;1.00;;;;;;7375767;19;20011;-68
2024/01/08 04:28:53;;;;;;;7.72;4.57;;;-1.30;1.00;;;;;;7382616;19;20601;-68
2024/01/08 04:31:24;;;;;;;5.88;4.13;;;-1.40;1.00;;;;;;7383427;19;20390;-68
2024/01/08 04:33:57;;;;;;;6.63;3.55;;;-1.40;1.00;;;;;;7385524;19;20017;-68
2024/01/08 04:36:29;;;;;;;4.95;3.90;;;-1.40;1.00;;;;;;7384766;19;19998;-69
2024/01/08 04:39:01;;;;;;;5.75;3.58;;;-1.40;1.00;;;;;;7385784;19;20384;-69
2024/01/08 04:41:31;;;;;;;4.00;3.00;;;-1.50;1.00;;;;;;7382133;19;20020;-69
2024/01/08 04:44:01;;;;;;;5.97;3.65;;;-1.50;1.00;;;;;;7384619;19;20022;-70
2024/01/08 04:46:32;;;;;;;5.05;3.33;;;-1.50;1.00;;;;;;7384548;19;20017;-71
2024/01/08 04:49:01;;;;;;;6.50;3.67;;;-1.50;1.00;;;;;;7384709;19;20011;-71
2024/01/08 04:51:33;;;;;;;6.88;3.78;;;-1.50;1.00;;;;;;7383877;19;20517;-71
2024/01/08 04:54:07;;;;;;;7.07;4.05;;;-1.50;1.00;;;;;;7382320;19;20033;-69
2024/01/08 04:56:38;;;;;;;4.90;3.40;;;-1.50;1.00;;;;;;7383339;19;20027;-70
2024/01/08 04:59:08;;;;;;;5.00;3.95;;;-1.50;1.00;;;;;;7381387;19;20047;-70
2024/01/08 05:01:41;;;;;;;6.80;3.75;;;-1.60;1.00;;;;;;7382982;19;20070;-69
2024/01/08 05:04:08;;;;;;;5.97;3.75;;;-1.60;1.00;;;;;;7381309;19;20081;-69
2024/01/08 05:06:41;;;;;;;4.80;3.50;;;-1.60;1.00;;;;;;7383253;19;20082;-70
2024/01/08 05:09:14;;;;;;;6.70;3.80;;;-1.60;1.00;;;;;;7382105;19;20026;-69
2024/01/08 05:11:44;;;;;;;4.85;3.65;;;-1.60;1.00;;;;;;7382714;19;20010;-69
2024/01/08 05:14:16;;;;;;;6.15;3.40;;;-1.60;1.00;;;;;;7382268;19;20045;-69
2024/01/08 05:16:46;;;;;;;4.57;3.40;;;-1.60;1.00;;;;;;7382603;19;20003;-69
2024/01/08 05:19:17;;;;;;;4.15;3.10;;;-1.60;1.00;;;;;;7382432;19;20017;-69
2024/01/08 05:21:47;;;;;;;4.88;3.88;;;-1.60;1.00;;;;;;7383291;19;20006;-69
2024/01/08 05:24:20;;;;;;;4.68;3.88;;;-1.60;1.00;;;;;;7382478;19;20500;-68
2024/01/08 05:26:50;;;;;;;5.53;3.83;;;-1.60;1.00;;;;;;7382743;19;20360;-69
2024/01/08 05:29:20;;;;;;;6.53;3.75;;;-1.60;1.00;;;;;;7380712;19;20010;-71
2024/01/08 05:31:50;;;;;;;7.82;4.47;;;-1.50;1.00;;;;;;7382678;19;20023;-71
2024/01/08 05:34:21;;;;;;;5.80;4.20;;;-1.60;1.00;;;;;;7382717;19;20018;-70
2024/01/08 05:36:51;;;;;;;6.15;4.53;;;-1.50;1.00;;;;;;7382882;19;20097;-68
2024/01/08 05:39:24;;;;;;;5.75;3.80;;;-1.60;1.00;;;;;;7382803;19;20083;-69
2024/01/08 05:41:54;;;;;;;6.95;3.67;;;-1.50;1.00;;;;;;7383280;19;20705;-69
2024/01/08 05:44:23;;;;;;;7.65;4.40;;;-1.60;1.00;;;;;;7381158;19;20018;-70
2024/01/08 05:46:54;;;;;;;6.93;4.65;;;-1.60;1.00;;;;;;7382244;19;20019;-70
2024/01/08 05:49:24;;;;;;;7.55;4.50;;;-1.60;1.00;;;;;;7380425;19;21184;-69
2024/01/08 05:51:54;;;;;;;6.40;4.30;;;-1.60;1.00;;;;;;7382969;19;20957;-69
2024/01/08 05:54:27;;;;;;;6.95;4.22;;;-1.60;1.00;;;;;;7380752;19;20048;-69
2024/01/08 05:56:57;;;;;;;7.50;4.30;;;-1.60;1.00;;;;;;7382686;19;20172;-70
2024/01/08 05:59:27;;;;;;;7.60;4.88;;;-1.70;1.00;;;;;;7382204;19;20039;-69
2024/01/08 06:01:57;;;;;;;6.13;4.50;;;-1.70;1.00;;;;;;7380726;19;20006;-70
2024/01/08 06:04:27;;;;;;;5.78;4.32;;;-1.70;1.00;;;;;;7391936;19;20011;-69
2024/01/08 06:06:57;;;;;;;6.15;4.32;;;-1.60;1.00;;;;;;7400114;19;20038;-71
2024/01/08 06:09:30;;;;;;;6.20;4.05;;;-1.70;1.00;;;;;;7381431;19;20490;-68
2024/01/08 06:12:00;;;;;;;7.38;4.60;;;-1.70;1.00;;;;;;7379594;19;20014;-69
2024/01/08 06:14:30;;;;;;;7.20;3.80;;;-1.60;1.00;;;;;;7377485;19;20025;-69
2024/01/08 06:17:00;;;;;;;10.40;4.30;;;-1.60;1.00;;;;;;7381753;19;20035;-69
2024/01/08 06:19:30;;;;;;;7.38;4.25;;;-1.70;1.00;;;;;;7381327;19;20382;-69
2024/01/08 06:22:01;;;;;;;7.20;4.22;;;-1.70;1.00;;;;;;7377649;19;20022;-68
2024/01/08 06:24:33;;;;;;;5.88;4.10;;;-1.70;1.00;;;;;;7378504;19;20022;-69
2024/01/08 06:27:03;;;;;;;7.38;4.35;;;-1.70;1.00;;;;;;7375164;19;20017;-70
2024/01/08 06:29:34;;;;;;;6.50;4.55;;;-1.70;1.00;;;;;;7379057;19;20011;-69
2024/01/08 06:32:04;;;;;;;5.78;4.10;;;-1.70;1.00;;;;;;7378657;19;20014;-70
2024/01/08 06:34:35;;;;;;;7.35;4.35;;;-1.60;1.00;;;;;;7378403;19;20019;-69
2024/01/08 06:37:05;;;;;;;6.95;4.63;;;-1.60;1.00;;;;;;7380601;19;20094;-69
2024/01/08 06:39:38;;;;;;;6.50;4.45;;;-1.60;1.00;;;;;;7379684;19;20017;-69
2024/01/08 06:42:08;;;;;;;7.50;4.90;;;-1.70;1.00;;;;;;7380945;19;20014;-70
2024/01/08 06:44:38;;;;;;;8.07;4.65;;;-1.60;1.00;;;;;;7379021;19;20007;-69
2024/01/08 06:47:08;;;;;;;6.45;4.15;;;-1.60;1.00;;;;;;7379726;19;20013;-69
2024/01/08 06:49:38;;;;;;;6.43;4.32;;;-1.60;1.00;;;;;;7378022;19;20011;-69
2024/01/08 06:52:09;;;;;;;7.25;3.97;;;-1.60;1.00;;;;;;7380017;19;20074;-70
2024/01/08 06:54:41;;;;;;;6.72;3.97;;;-1.70;1.00;;;;;;7379137;19;20017;-69
2024/01/08 06:57:11;;;;;;;6.95;4.22;;;-1.70;1.00;;;;;;7379113;19;20018;-68
2024/01/08 06:59:41;;;;;;;8.55;4.70;;;-1.70;1.00;;;;;;7379714;19;20021;-69
2024/01/08 07:02:15;;;;;;;6.57;3.50;;;-1.60;1.00;;;;;;7380027;19;20818;-69
2024/01/08 07:04:45;;;;;;;8.23;4.13;;;-1.60;1.00;;;;;;7378286;19;20014;-69
2024/01/08 07:07:15;;;;;;;6.88;4.50;;;-1.60;1.00;;;;;;7379689;19;20025;-69
2024/01/08 07:09:47;;;;;;;7.72;4.47;;;-1.50;1.00;;;;;;7378900;19;20178;-69
2024/01/08 07:12:18;;;;;;;7.07;4.53;;;-1.50;1.00;;;;;;7379049;19;20015;-68
2024/01/08 07:14:48;;;;;;;7.45;5.03;;;-1.50;1.00;;;;;;7378466;19;20012;-70
2024/01/08 07:17:18;;;;;;;6.43;4.57;;;-1.50;1.00;;;;;;7379250;19;20023;-69
2024/01/08 07:19:48;;;;;;;6.47;4.47;;;-1.60;1.00;;;;;;7377079;19;20017;-70
2024/01/08 07:22:18;;;;;;;7.47;4.72;;;-1.60;1.00;;;;;;7378188;19;20015;-69
2024/01/08 07:24:51;;;;;;;6.13;4.70;;;-1.60;1.00;;;;;;7378473;19;20069;-69
2024/01/08 07:27:21;;;;;;;7.85;4.72;;;-1.60;1.00;;;;;;7378903;19;20022;-69
2024/01/08 07:29:56;;;;;;;8.10;4.72;;;-1.60;1.00;;;;;;7378357;19;20007;-71
2024/01/08 07:32:28;;;;;;;6.00;3.83;;;-1.60;1.00;;;;;;7379788;19;20025;-69
2024/01/08 07:35:00;;;;;;;7.25;4.88;;;-1.50;1.00;;;;;;7377500;19;20014;-68
2024/01/08 07:37:31;;;;;;;8.32;4.68;;;-1.60;1.00;;;;;;7375855;19;20083;-68
2024/01/08 07:40:04;;;;;;;6.40;3.85;;;-1.60;1.00;;;;;;7378961;19;20010;-69
2024/01/08 07:42:34;;;;;;;7.95;4.40;;;-1.60;1.00;;;;;;7378070;19;20138;-70
2024/01/08 07:45:05;;;;;;;9.20;4.72;;;-1.50;1.00;;;;;;7379492;19;20014;-71
2024/01/08 07:47:35;;;;;;;5.05;3.78;;;-1.50;1.00;;;;;;7376952;19;20634;-69
2024/01/08 07:50:05;;;;;;;5.57;3.92;;;-1.50;1.00;;;;;;7377584;19;20035;-70
2024/01/08 07:52:36;;;;;;;10.13;5.68;;;-1.50;1.00;;;;;;7379094;19;20006;-69
2024/01/08 07:55:13;;;;;;;7.38;4.80;;;-1.50;1.00;;;;;;7377132;19;20023;-70
2024/01/08 07:57:43;;;;;;;8.00;4.85;;;-1.40;1.00;;;;;;7377359;19;20011;-69
2024/01/08 08:00:14;;;;;;;7.72;4.72;;;-1.40;1.00;;;;;;7377625;19;20534;-69
2024/01/08 08:02:45;;;;;;;5.85;3.85;;;-1.50;1.00;;;;;;7373586;19;20359;-69
2024/01/08 08:05:16;;;;;;;8.40;5.20;;;-1.50;1.00;;;;;;7377894;19;20036;-68
2024/01/08 08:07:46;;;;;;;8.35;4.93;;;-1.50;1.00;;;;;;7377482;19;20090;-69
2024/01/08 08:10:19;;;;;;;6.70;4.45;;;-1.40;1.00;;;;;;7376798;19;20010;-69
2024/01/08 08:12:52;;;;;;;7.90;4.30;;;-1.50;1.00;;;;;;7377073;19;20014;-69
2024/01/08 08:15:22;;;;;;;6.35;4.30;;;-1.50;1.00;;;;;;7376506;19;20011;-70
2024/01/08 08:17:52;;;;;;;6.85;4.63;;;-1.40;1.00;;;;;;7377408;19;20031;-69
2024/01/08 08:20:23;;;;;;;6.90;4.22;;;-1.40;1.00;;;;;;7375648;19;20124;-70
2024/01/08 08:22:53;;;;;;;7.20;4.32;;;-1.40;1.00;;;;;;7377297;19;20010;-70
2024/01/08 08:25:26;;;;;;;6.88;4.43;;;-1.30;1.00;;;;;;7378725;19;22417;-69
2024/01/08 08:27:56;;;;;;;7.03;4.18;;;-1.40;1.00;;;;;;7377784;19;20039;-70
2024/01/08 08:30:26;;;;;;;9.30;4.68;;;-1.40;1.00;;;;;;7374864;19;20018;-69
2024/01/08 08:32:58;;;;;;;12.75;4.95;;;-1.40;1.00;;;;;;7383579;19;20039;-70
2024/01/08 08:35:29;;;;;;;7.05;4.60;;;-1.40;1.00;;;;;;7392932;19;20014;-70
2024/01/08 08:37:59;;;;;;;8.00;4.18;;;-1.40;1.00;;;;;;7377242;19;20498;-69
2024/01/08 08:40:32;;;;;;;6.95;4.40;;;-1.40;1.00;;;;;;7376449;19;20031;-69
2024/01/08 08:43:02;;;;;;;7.95;4.75;;;-1.30;1.00;;;;;;7377894;19;20769;-69
2024/01/08 08:45:32;;;;;;;6.32;4.30;;;-1.40;1.00;;;;;;7377603;19;20014;-69
2024/01/08 08:48:02;;;;;;;7.35;4.07;;;-1.40;1.00;;;;;;7374040;19;20006;-69
2024/01/08 08:50:32;;;;;;;7.20;4.32;;;-1.40;1.00;;;;;;7376866;19;20422;-69
2024/01/08 08:53:02;;;;;;;6.60;3.95;;;-1.50;1.00;;;;;;7376392;19;20071;-69
2024/01/08 08:55:35;;;;;;;6.53;4.25;;;-1.50;1.00;;;;;;7376625;19;20011;-69
2024/01/08 08:58:09;;;;;;;9.13;4.18;;;-1.50;1.00;;;;;;7370246;19;20017;-69
2024/01/08 09:00:39;;;;;;;6.72;3.97;;;-1.40;1.00;;;;;;7374541;19;20776;-69
2024/01/08 09:03:09;;;;;;;7.80;4.55;;;-1.40;1.00;;;;;;7375195;19;20014;-69
2024/01/08 09:05:39;;;;;;;6.55;4.13;;;-1.40;1.00;;;;;;7375679;19;20010;-69
2024/01/08 09:08:17;;;;;;;7.10;4.22;;;-1.40;1.00;;;;;;7375707;19;20018;-69
2024/01/08 09:10:49;;;;;;;12.60;5.22;;;-1.40;1.00;;;;;;7375145;19;20086;-69
2024/01/08 09:13:19;;;;;;;7.35;3.97;;;-1.40;1.00;;;;;;7379311;19;20010;-70
2024/01/08 09:15:49;;;;;;;6.95;4.22;;;-1.30;1.00;;;;;;7382334;19;20018;-70
2024/01/08 09:18:20;;;;;;;6.70;4.25;;;-1.40;1.00;;;;;;7382821;19;20018;-69
2024/01/08 09:20:50;;;;;;;5.50;3.83;;;-1.40;1.00;;;;;;7381057;19;20390;-68
2024/01/08 09:23:20;;;;;;;6.80;4.05;;;-1.40;1.00;;;;;;7383480;19;20082;-69
2024/01/08 09:25:53;;;;;;;6.32;3.95;;;-1.40;1.00;;;;;;7383471;19;20467;-69
2024/01/08 09:28:23;;;;;;;10.30;4.53;;;-1.40;1.00;;;;;;7382499;19;20014;-69
2024/01/08 09:30:55;;;;;;;5.70;4.05;;;-1.30;1.00;;;;;;7381112;19;20010;-69
2024/01/08 09:33:26;;;;;;;10.88;4.68;;;-1.30;1.00;;;;;;7381741;19;20036;-69
2024/01/08 09:35:57;;;;;;;7.45;4.50;;;-1.40;1.00;;;;;;7381755;19;20019;-69
2024/01/08 09:38:27;;;;;;;8.00;4.35;;;-1.40;1.00;;;;;;7380945;19;20007;-70
2024/01/08 09:41:00;;;;;;;5.00;3.85;;;-1.30;1.00;;;;;;7380135;19;20003;-69
2024/01/08 09:43:41;;;;;;;5.93;3.80;;;-1.40;1.00;;;;;;7375804;19;20014;-70
2024/01/08 09:46:16;;;;;;;7.38;4.00;;;-1.50;1.00;;;;;;7380592;19;20014;-70
2024/01/08 09:48:46;;;;;;;6.35;3.78;;;-1.50;1.00;;;;;;7381257;19;20006;-69
2024/01/08 09:51:17;;;;;;;6.03;3.63;;;-1.50;1.00;;;;;;7381907;19;20082;-68
2024/01/08 09:53:47;;;;;;;7.45;4.22;;;-1.40;1.00;;;;;;7381879;19;20015;-69
2024/01/08 09:56:22;;;;;;;7.00;4.05;;;-1.40;1.00;;;;;;7380707;19;20372;-68
2024/01/08 09:58:53;;;;;;;8.40;4.57;;;-1.40;1.00;;;;;;7381316;19;20035;-69
2024/01/08 10:01:23;;;;;;;6.72;3.90;;;-1.30;1.00;;;;;;7381744;19;20023;-69
2024/01/08 10:03:53;;;;;;;7.97;4.10;;;-1.20;1.00;;;;;;7381525;19;20015;-69
2024/01/08 10:06:24;;;;;;;8.75;4.63;;;-1.30;1.00;;;;;;7381142;19;20018;-68
2024/01/08 10:08:54;;;;;;;8.88;4.43;;;-1.30;1.00;;;;;;7381708;19;20332;-70
2024/01/08 10:11:28;;;;;;;6.05;3.65;;;-1.20;1.00;;;;;;7380726;19;20018;-69
2024/01/08 10:13:58;;;;;;;6.53;4.35;;;-1.40;1.00;;;;;;7387562;19;20447;-69
2024/01/08 10:16:29;;;;;;;6.38;3.53;;;-1.40;1.00;;;;;;7377530;19;20343;-67
2024/01/08 10:19:23;;;;;;;6.32;3.95;;;-1.30;1.00;;;;;;6868248;19;2003891;-70
2024/01/08 10:22:09;;;;;;;5.72;3.85;;;-1.30;1.00;;;;;;7380970;19;20483;-69
2024/01/08 10:24:41;;;;;;;7.28;4.32;;;-1.40;1.00;;;;;;7374160;19;20018;-69
2024/01/08 10:27:14;;;;;;;7.43;4.03;;;-1.20;1.00;;;;;;7380115;19;20036;-69
2024/01/08 10:29:44;;;;;;;5.25;3.58;;;-1.30;1.00;;;;;;7379588;19;20015;-69
2024/01/08 10:32:15;;;;;;;9.52;4.00;;;-1.40;1.00;;;;;;7378947;19;20455;-68
2024/01/08 10:34:46;;;;;;;5.85;3.90;;;-1.40;1.00;;;;;;7381074;19;20007;-68
2024/01/08 10:37:17;;;;;;;5.88;4.05;;;-1.40;1.00;;;;;;7379720;19;20095;-68
2024/01/08 10:39:48;;;;;;;7.18;4.45;;;-1.40;1.00;;;;;;7379458;19;20035;-69
2024/01/08 10:42:23;;;;;;;6.20;4.22;;;-1.40;1.00;;;;;;7381380;19;20006;-69
2024/01/08 10:44:53;;;;;;;6.40;4.38;;;-1.40;1.00;;;;;;7380199;19;20019;-69
2024/01/08 10:47:27;;;;;;;6.25;4.53;;;-1.30;1.00;;;;;;7381753;19;20355;-69
2024/01/08 10:50:00;;;;;;;11.32;4.53;;;-1.40;1.00;;;;;;7378566;19;20011;-70
2024/01/08 10:52:32;;;;;;;5.95;3.95;;;-1.20;1.00;;;;;;7381932;19;20082;-69
2024/01/08 10:55:06;;;;;;;7.50;3.97;;;-1.30;1.00;;;;;;7377575;19;20007;-72
2024/01/08 10:57:50;;;;;;;9.07;4.95;;;-1.30;1.00;;;;;;7379136;19;20010;-69
2024/01/08 11:00:21;;;;;;;6.45;4.50;;;-1.20;1.00;;;;;;7380046;19;20025;-70
2024/01/08 11:02:52;;;;;;;9.13;4.45;;;-1.30;1.00;;;;;;7386039;19;20010;-69
2024/01/08 11:05:23;;;;;;;5.47;3.75;;;-1.30;1.00;;;;;;7387897;19;20094;-68
2024/01/08 11:07:54;;;;;;;7.63;3.70;;;-1.40;1.00;;;;;;7378615;19;20412;-68
2024/01/08 11:10:25;;;;;;;10.30;4.88;;;-1.20;1.00;;;;;;7378803;19;20014;-68
2024/01/08 11:12:59;;;;;;;8.55;5.03;;;-1.10;1.00;;;;;;7380169;19;20042;-68
2024/01/08 11:15:30;;;;;;;7.20;4.53;;;-1.10;1.00;;;;;;7379955;19;20018;-68
2024/01/08 11:18:03;;;;;;;12.50;4.70;;;-1.00;1.00;;;;;;7380085;19;20340;-69
2024/01/08 11:20:46;;;;;;;5.80;3.78;;;-1.00;1.00;;;;;;7379631;19;20010;-70
2024/01/08 11:23:40;;;;;;;7.45;4.65;;;-1.10;1.00;;;;;;6867144;19;2004853;-69
2024/01/08 11:26:16;;;;;;;6.68;3.83;;;-1.00;1.00;;;;;;7376116;19;20425;-69
2024/01/08 11:29:04;;;;;;;6.30;3.58;;;-1.10;1.00;;;;;;7376486;19;20015;-70
2024/01/08 11:32:04;;;;;;;8.10;4.45;;;-1.10;1.00;;;;;;7376419;19;20296;-69
2024/01/08 11:34:57;;;;;;;5.45;3.50;;;-1.10;1.00;;;;;;6870534;19;2004052;-68
2024/01/08 11:37:35;;;;;;;7.47;4.55;;;-1.10;1.00;;;;;;6867737;19;2003907;-69
2024/01/08 11:40:09;;;;;;;6.70;4.13;;;-1.10;1.00;;;;;;7377750;19;20470;-69
2024/01/08 11:42:39;;;;;;;5.07;3.50;;;-0.80;1.00;;;;;;7374533;19;20006;-69
2024/01/08 11:45:12;;;;;;;6.05;4.00;;;-0.90;1.00;;;;;;7377575;19;20010;-70
2024/01/08 11:47:43;;;;;;;8.45;4.20;;;-0.90;1.00;;;;;;7378770;19;20428;-70
2024/01/08 11:50:13;;;;;;;6.15;4.47;;;-1.00;1.00;;;;;;7377956;19;20015;-70
2024/01/08 11:52:44;;;;;;;8.45;4.03;;;-1.00;1.00;;;;;;7377835;19;20031;-70
2024/01/08 11:55:14;;;;;;;6.60;3.97;;;-1.00;1.00;;;;;;7377280;19;20054;-69
2024/01/08 11:57:45;;;;;;;5.63;3.90;;;-1.00;1.00;;;;;;7376285;19;20022;-70
2024/01/08 12:00:22;;;;;;;7.05;4.53;;;-1.00;1.00;;;;;;7377052;19;20006;-70
2024/01/08 12:03:02;;;;;;;6.22;3.95;;;-1.00;1.00;;;;;;7378356;19;20374;-69
2024/01/08 12:05:33;;;;;;;6.43;4.00;;;-0.90;1.00;;;;;;7379074;19;20502;-69
2024/01/08 12:08:03;;;;;;;6.50;3.95;;;-0.80;1.00;;;;;;7372768;19;20011;-69
2024/01/08 12:10:34;;;;;;;8.48;4.50;;;-0.80;1.00;;;;;;7378020;19;20010;-69
2024/01/08 12:13:07;;;;;;;9.80;4.60;;;-0.70;1.00;;;;;;7378511;19;20094;-69
2024/01/08 12:15:41;;;;;;;7.15;4.10;;;-0.70;1.00;;;;;;7375503;19;20021;-69
2024/01/08 12:18:12;;;;;;;8.40;4.28;;;-0.70;1.00;;;;;;7378125;19;20508;-70
2024/01/08 12:20:42;;;;;;;9.32;3.92;;;-0.80;1.00;;;;;;7378831;19;20018;-69
2024/01/08 12:23:12;;;;;;;6.88;4.13;;;-0.90;1.00;;;;;;7378247;19;20018;-70
2024/01/08 12:25:43;;;;;;;10.25;4.80;;;-0.90;1.00;;;;;;7375952;19;20039;-68
2024/01/08 12:28:15;;;;;;;8.00;4.97;;;-0.70;1.00;;;;;;7375134;19;20078;-69
2024/01/08 12:30:48;;;;;;;8.43;4.70;;;-0.70;1.00;;;;;;7377592;19;20073;-69
2024/01/08 12:33:18;;;;;;;7.75;4.85;;;-0.60;1.00;;;;;;7378528;19;20857;-69
2024/01/08 12:35:48;;;;;;;9.32;4.82;;;-0.70;1.00;;;;;;7375826;19;20014;-69
2024/01/08 12:38:19;;;;;;;16.17;4.90;;;-0.80;1.00;;;;;;7376712;19;20014;-70
2024/01/08 12:40:53;;;;;;;7.18;4.63;;;-0.70;1.00;;;;;;7375672;19;20007;-69
2024/01/08 12:43:23;;;;;;;10.38;4.75;;;-0.60;1.00;;;;;;7377681;19;20356;-69
2024/01/08 12:45:56;;;;;;;7.30;4.80;;;-0.70;1.00;;;;;;7376558;19;20011;-69
2024/01/08 12:48:26;;;;;;;8.68;5.00;;;-0.60;1.00;;;;;;7378892;19;20464;-68
2024/01/08 12:50:56;;;;;;;7.43;4.57;;;-1.10;1.00;;;;;;7382170;19;20016;-68
2024/01/08 12:53:27;;;;;;;9.85;4.78;;;-1.20;1.00;;;;;;7384485;19;20014;-70
2024/01/08 12:55:58;;;;;;;8.20;4.45;;;-1.20;1.00;;;;;;7383876;19;20023;-68
2024/01/08 12:58:28;;;;;;;8.05;4.82;;;-1.50;1.00;;;;;;7384335;19;20022;-69
2024/01/08 13:01:01;;;;;;;10.50;4.95;;;-1.50;1.00;;;;;;7384633;19;20037;-69
2024/01/08 13:03:31;;;;;;;9.20;5.03;;;-1.30;1.00;;;;;;7383961;19;20538;-69
2024/01/08 13:06:01;;;;;;;8.38;4.63;;;-1.30;1.00;;;;;;7383248;19;20010;-69
2024/01/08 13:08:33;;;;;;;10.15;5.68;;;-1.50;1.00;;;;;;7383346;19;20010;-69
2024/01/08 13:11:03;;;;;;;7.90;5.40;;;-1.30;1.00;;;;;;7383411;19;20028;-69
2024/01/08 13:13:33;;;;;;;8.38;5.10;;;-1.40;1.00;;;;;;7383650;19;20007;-69
2024/01/08 13:16:06;;;;;;;8.40;4.90;;;-1.50;1.00;;;;;;7384190;19;20013;-70
2024/01/08 13:18:37;;;;;;;9.38;5.38;;;-1.40;1.00;;;;;;7385032;19;20010;-69